Terminal Aerodrome Forecast
Issued by NWS

Home | Current Version | Previous Version | Text Only | Print | Product List | Glossary On
Versions: 1 2 3 4 5 6 7 8 9 10 11 12 13 14 15 16 17 18 19 20 21 22 23 24 25 26 27 28 29 30 31 32 33 34 35 36
000
FTUS45 KLKN 201728
TAFTPH
TAF
KTPH 201728Z 2018/2118 17014KT P6SM SCT010 OVC020
      TEMPO 2018/2022 OVC007
     FM202200 17016G30KT P6SM VCSH SCT015 OVC025
      TEMPO 2100/2104 6SM -RA BR BKN008
     FM210400 17015G30KT P6SM BKN020 OVC040
     FM211600 20030G42KT P6SM OVC050=

USA.gov is the U.S. government's official web portal to all federal, state and local government web resources and services.